Archiv-/Tagesdaten

--Timestamp---	Temp	Chill	HIndex	Humid	Dewpt	Wind	HiWind	WindDir	Rain	Barom	Solar	ET	UV
--------------	----	-----	------	-----	-----	----	------	-------	----	-----	-----	--	--
20071207 00:05	5.9	4.7	5.9	88	4.1	6	19	202	0.00	1013.312	0	0.000	0
20071207 00:10	6.0	6.0	6.0	88	4.2	5	16	225	0.00	1013.244	0	0.000	0
20071207 00:15	6.1	6.1	6.1	87	4.1	5	16	202	0.00	1013.244	0	0.000	0
20071207 00:20	6.2	6.2	6.2	87	4.2	5	18	225	0.00	1013.041	0	0.000	0
20071207 00:25	6.2	5.0	6.2	87	4.2	6	16	225	0.00	1012.906	0	0.000	0
20071207 00:30	6.3	6.3	6.3	87	4.3	5	14	225	0.00	1012.804	0	0.000	0
20071207 00:35	6.4	6.4	6.4	87	4.4	5	16	202	0.00	1012.601	0	0.000	0
20071207 00:40	6.4	5.2	6.4	87	4.4	6	14	225	0.00	1012.499	0	0.000	0
20071207 00:45	6.4	5.2	6.4	87	4.4	6	14	225	0.00	1012.364	0	0.000	0
20071207 00:50	6.5	5.3	6.5	87	4.5	6	18	225	0.00	1012.194	0	0.000	0
20071207 00:55	6.6	5.5	6.6	86	4.4	6	16	225	0.00	1012.127	0	0.000	0
20071207 01:00	6.8	6.8	6.8	85	4.5	5	11	247	0.00	1012.127	0	0.020	0
20071207 01:05	7.2	6.1	7.2	84	4.6	6	19	247	0.00	1011.788	0	0.000	0
20071207 01:10	7.6	6.1	7.6	82	4.7	8	16	247	0.00	1011.754	0	0.000	0
20071207 01:15	7.8	6.5	7.8	81	4.8	8	18	247	0.00	1011.686	0	0.000	0
20071207 01:20	8.1	6.1	8.1	80	4.8	11	24	225	0.00	1011.585	0	0.000	0
20071207 01:25	8.3	5.9	8.3	80	5.1	14	35	247	0.20	1011.382	0	0.000	0
20071207 01:30	8.4	5.9	8.4	80	5.2	16	32	247	0.00	1011.348	0	0.000	0
20071207 01:35	8.5	5.7	8.5	80	5.2	18	27	247	0.00	1011.246	0	0.000	0
20071207 01:40	8.6	5.9	8.6	80	5.4	18	31	247	0.00	1011.212	0	0.000	0
20071207 01:45	8.6	6.0	8.6	81	5.5	16	32	247	0.00	1011.043	0	0.000	0
20071207 01:50	8.6	6.0	8.6	81	5.5	16	39	247	0.00	1010.975	0	0.000	0
20071207 01:55	8.6	6.3	8.6	80	5.4	14	27	247	0.00	1010.874	0	0.000	0
20071207 02:00	8.8	6.6	8.8	79	5.4	14	32	247	0.00	1010.806	0	0.020	0
20071207 02:05	9.1	6.4	9.1	78	5.4	18	35	247	0.00	1010.671	0	0.000	0
20071207 02:10	9.1	6.8	9.1	79	5.6	14	26	247	0.00	1010.738	0	0.000	0
20071207 02:15	8.9	6.4	8.9	80	5.6	16	31	247	0.00	1010.637	0	0.000	0
20071207 02:20	8.8	6.3	8.8	81	5.7	16	31	247	0.00	1010.467	0	0.000	0
20071207 02:25	8.7	6.9	8.7	81	5.6	11	24	247	0.00	1010.467	0	0.000	0
20071207 02:30	8.8	6.6	8.8	80	5.6	14	32	247	0.00	1010.298	0	0.000	0
20071207 02:35	9.1	6.8	9.1	79	5.6	14	29	247	0.00	1010.298	0	0.000	0
20071207 02:40	9.2	7.0	9.2	78	5.6	14	35	247	0.00	1010.163	0	0.000	0
20071207 02:45	9.3	6.9	9.3	78	5.6	16	32	247	0.00	1009.993	0	0.000	0
20071207 02:50	9.3	7.0	9.3	77	5.5	16	31	247	0.00	1009.824	0	0.000	0
20071207 02:55	9.5	7.2	9.5	76	5.5	16	37	247	0.00	1009.756	0	0.000	0
20071207 03:00	9.6	7.4	9.6	75	5.3	14	32	247	0.00	1009.621	0	0.020	0
20071207 03:05	9.7	7.8	9.7	74	5.3	13	29	247	0.00	1009.485	0	0.000	0
20071207 03:10	9.8	7.5	9.8	74	5.4	16	34	247	0.00	1009.384	0	0.000	0
20071207 03:15	9.8	7.5	9.8	74	5.4	16	34	247	0.00	1009.316	0	0.000	0
20071207 03:20	9.7	7.6	9.7	76	5.6	14	31	247	0.00	1009.181	0	0.000	0
20071207 03:25	9.6	7.4	9.6	77	5.7	14	26	247	0.00	1009.113	0	0.000	0
20071207 03:30	9.4	7.3	9.4	77	5.6	14	27	225	0.00	1009.011	0	0.000	0
20071207 03:35	9.3	7.4	9.3	78	5.7	13	27	247	0.00	1008.943	0	0.000	0
20071207 03:40	9.3	7.4	9.3	79	5.9	13	34	247	0.00	1008.910	0	0.000	0
20071207 03:45	9.3	7.4	9.3	79	5.9	13	23	247	0.00	1008.774	0	0.000	0
20071207 03:50	9.2	7.0	9.2	80	6.0	14	26	247	0.00	1008.706	0	0.000	0
20071207 03:55	9.1	7.1	9.1	82	6.2	13	24	247	0.20	1008.605	0	0.000	0
20071207 04:00	8.8	6.8	8.8	84	6.3	13	27	247	0.20	1008.537	0	0.040	0
20071207 04:05	8.7	6.6	8.7	85	6.3	13	34	247	0.00	1008.537	0	0.000	0
20071207 04:10	8.6	6.4	8.6	86	6.3	13	26	247	0.20	1008.503	0	0.000	0
20071207 04:15	8.5	6.9	8.5	86	6.3	10	26	247	0.00	1008.368	0	0.000	0
20071207 04:20	8.4	6.6	8.4	86	6.2	11	24	247	0.20	1008.300	0	0.000	0
20071207 04:25	8.5	6.4	8.5	86	6.3	13	27	247	0.00	1008.266	0	0.000	0
20071207 04:30	8.4	6.8	8.4	87	6.4	10	35	270	0.20	1008.063	0	0.000	0
20071207 04:35	8.4	6.6	8.4	87	6.4	11	26	247	0.20	1008.029	0	0.000	0
20071207 04:40	8.4	6.3	8.4	87	6.4	13	24	247	0.20	1007.995	0	0.000	0
20071207 04:45	8.4	6.5	8.4	87	6.4	11	26	247	0.00	1007.928	0	0.000	0
20071207 04:50	8.3	6.4	8.3	87	6.3	11	24	247	0.20	1007.928	0	0.000	0
20071207 04:55	8.3	6.7	8.3	88	6.4	10	23	247	0.20	1007.826	0	0.000	0
20071207 05:00	8.3	7.0	8.3	88	6.4	8	21	247	0.00	1007.657	0	0.020	0
20071207 05:05	8.3	6.4	8.3	88	6.4	11	34	225	0.00	1007.555	0	0.000	0
20071207 05:10	8.3	6.4	8.3	87	6.2	11	23	225	0.20	1007.521	0	0.000	0
20071207 05:15	8.2	6.9	8.2	88	6.4	8	26	225	0.00	1007.386	0	0.000	0
20071207 05:20	8.2	6.6	8.2	88	6.4	10	26	247	0.20	1007.386	0	0.000	0
20071207 05:25	8.2	6.5	8.2	88	6.3	10	19	225	0.00	1007.352	0	0.000	0
20071207 05:30	8.1	6.2	8.1	89	6.4	11	23	225	0.20	1007.250	0	0.000	0
20071207 05:35	8.1	6.4	8.1	89	6.4	10	27	247	0.20	1007.115	0	0.000	0
20071207 05:40	8.1	6.5	8.1	89	6.4	10	24	247	0.20	1006.979	0	0.000	0
20071207 05:45	8.1	6.4	8.1	89	6.4	10	21	225	0.00	1006.945	0	0.000	0
20071207 05:50	8.1	6.7	8.1	89	6.4	8	19	247	0.20	1006.742	0	0.000	0
20071207 05:55	8.1	6.5	8.1	89	6.4	10	23	247	0.20	1006.844	0	0.000	0
20071207 06:00	8.2	6.2	8.2	88	6.3	11	21	225	0.00	1006.844	0	0.020	0
20071207 06:05	8.2	6.6	8.2	88	6.4	10	23	247	0.20	1006.539	0	0.000	0
20071207 06:10	8.2	6.3	8.2	88	6.4	11	26	247	0.00	1006.539	0	0.000	0
20071207 06:15	8.2	6.3	8.2	88	6.4	11	27	247	0.20	1006.471	0	0.000	0
20071207 06:20	8.3	6.4	8.3	88	6.4	11	24	247	0.00	1006.539	0	0.000	0
20071207 06:25	8.3	6.7	8.3	88	6.4	10	23	247	0.20	1006.573	0	0.000	0
20071207 06:30	8.3	6.7	8.3	88	6.5	10	31	247	0.20	1006.573	0	0.000	0
20071207 06:35	8.3	6.7	8.3	89	6.6	10	23	225	0.20	1006.404	0	0.000	0
20071207 06:40	8.4	6.8	8.4	89	6.7	10	26	247	0.20	1006.404	0	0.000	0
20071207 06:45	8.4	6.8	8.4	89	6.7	10	32	247	0.20	1006.438	0	0.000	0
20071207 06:50	8.4	6.6	8.4	89	6.7	11	31	247	0.00	1006.438	0	0.000	0
20071207 06:55	8.4	6.6	8.4	89	6.7	11	24	247	0.20	1006.268	0	0.000	0
20071207 07:00	8.5	6.4	8.5	88	6.6	13	27	225	0.20	1006.201	0	0.020	0
20071207 07:05	8.6	7.0	8.6	88	6.7	10	27	247	0.00	1006.167	0	0.000	0
20071207 07:10	8.6	6.8	8.6	88	6.7	11	27	225	0.20	1006.099	0	0.000	0
20071207 07:15	8.7	6.6	8.7	88	6.8	13	27	247	0.00	1005.930	0	0.000	0
20071207 07:20	8.7	6.6	8.7	87	6.7	13	31	247	0.00	1005.930	0	0.000	0
20071207 07:25	8.8	7.2	8.8	87	6.7	10	24	225	0.20	1005.862	0	0.000	0
20071207 07:30	8.9	7.1	8.9	86	6.7	11	35	247	0.00	1005.760	0	0.000	0
20071207 07:35	9.0	7.0	9.0	86	6.8	13	29	247	0.00	1005.625	0	0.000	0
20071207 07:40	9.0	7.2	9.0	85	6.6	11	31	247	0.00	1005.659	0	0.000	0
20071207 07:45	9.1	7.3	9.1	85	6.7	11	27	225	0.00	1005.557	0	0.000	0
20071207 07:50	9.1	7.1	9.1	85	6.7	13	31	225	0.00	1005.659	0	0.000	0
20071207 07:55	9.2	6.8	9.2	84	6.6	16	27	247	0.00	1005.693	0	0.000	0
20071207 08:00	9.4	6.9	9.4	83	6.6	18	37	247	0.00	1005.625	0	0.020	0
20071207 08:05	9.4	7.0	9.4	84	6.8	16	29	247	0.00	1005.693	0	0.000	0
20071207 08:10	9.4	7.0	9.4	83	6.6	16	29	247	0.00	1005.591	0	0.000	0
20071207 08:15	9.6	7.1	9.6	82	6.7	18	34	247	0.00	1005.422	3	0.000	0
20071207 08:20	9.6	7.7	9.6	82	6.6	13	31	247	0.20	1005.489	5	0.000	0
20071207 08:25	9.6	7.3	9.6	82	6.7	16	35	247	0.00	1005.185	7	0.000	0
20071207 08:30	9.7	7.8	9.7	81	6.6	13	29	247	0.00	1004.914	10	0.000	0
20071207 08:35	9.7	7.5	9.7	81	6.6	16	34	225	0.00	1004.914	11	0.000	0
20071207 08:40	9.9	7.7	9.9	80	6.6	16	37	247	0.00	1004.812	12	0.000	0
20071207 08:45	10.0	10.0	10.0	80	6.7	18	34	247	0.00	1004.778	16	0.000	0
20071207 08:50	10.1	10.1	10.1	79	6.6	16	31	247	0.00	1004.677	13	0.000	0
20071207 08:55	10.2	10.2	10.2	78	6.5	18	34	247	0.00	1004.643	14	0.000	0
20071207 09:00	10.2	10.2	10.2	77	6.4	18	40	247	0.00	1004.778	13	0.020	0
20071207 09:05	10.3	10.3	10.3	77	6.5	16	40	270	0.00	1004.744	23	0.000	0
20071207 09:10	10.3	10.3	10.3	77	6.5	14	26	247	0.00	1004.744	30	0.000	0
20071207 09:15	10.4	10.4	10.4	77	6.6	18	43	247	0.00	1004.812	24	0.000	0
20071207 09:20	10.4	10.4	10.4	77	6.5	14	31	247	0.00	1004.711	26	0.000	0
20071207 09:25	10.6	10.6	10.6	76	6.5	16	32	247	0.00	1004.643	36	0.000	0
20071207 09:30	10.7	10.7	10.7	75	6.5	16	29	270	0.00	1004.575	37	0.000	0
20071207 09:35	10.8	10.8	10.8	74	6.3	16	32	247	0.00	1004.643	33	0.000	0
20071207 09:40	10.9	10.9	10.9	73	6.3	19	35	247	0.00	1004.541	35	0.000	0
20071207 09:45	11.0	11.0	11.0	72	6.1	16	34	247	0.00	1004.507	38	0.000	0
20071207 09:50	11.2	11.2	11.2	71	6.1	19	39	247	0.00	1004.575	44	0.000	0
20071207 09:55	11.2	11.2	11.2	71	6.1	18	32	247	0.00	1004.440	50	0.000	0
20071207 10:00	11.2	11.2	11.2	71	6.2	19	37	247	0.00	1004.406	50	0.060	0
20071207 10:05	11.2	11.2	11.2	71	6.2	18	32	247	0.00	1003.999	55	0.000	0
20071207 10:10	11.3	11.3	11.3	70	6.0	16	40	247	0.00	1004.067	58	0.000	0
20071207 10:15	11.3	11.3	11.3	70	6.1	19	35	247	0.00	1004.067	59	0.000	0
20071207 10:20	11.4	11.4	11.4	69	5.9	18	37	247	0.00	1004.033	60	0.000	0
20071207 10:25	11.4	11.4	11.4	69	6.0	18	32	247	0.00	1004.033	54	0.000	0
20071207 10:30	11.4	11.4	11.4	69	6.0	16	35	247	0.00	1003.999	53	0.000	0
20071207 10:35	11.4	11.4	11.4	69	6.0	16	37	270	0.00	1003.728	69	0.000	0
20071207 10:40	11.5	11.5	11.5	69	6.0	18	37	247	0.00	1003.661	99	0.000	0
20071207 10:45	11.7	11.7	11.7	67	5.7	21	35	247	0.00	1003.593	114	0.000	0
20071207 10:50	11.7	11.7	11.7	68	6.0	14	29	247	0.00	1003.559	130	0.000	0
20071207 10:55	11.7	11.7	11.7	68	6.0	16	34	247	0.00	1003.593	141	0.000	0
20071207 11:00	11.8	11.8	11.8	67	5.9	19	32	247	0.00	1003.525	135	0.080	0
20071207 11:05	11.9	11.9	11.9	67	6.0	18	32	247	0.00	1003.424	117	0.000	0
20071207 11:10	11.9	11.9	11.9	66	5.8	18	37	270	0.00	1003.254	104	0.000	0
20071207 11:15	11.9	11.9	11.9	66	5.8	19	35	247	0.00	1003.288	91	0.000	0
20071207 11:20	11.9	11.9	11.9	67	6.0	16	31	247	0.00	1003.254	93	0.000	0
20071207 11:25	11.9	11.9	11.9	66	5.8	14	29	247	0.00	1003.187	89	0.000	0
20071207 11:30	11.9	11.9	11.9	67	6.0	14	35	247	0.00	1003.153	94	0.000	0
20071207 11:35	11.9	11.9	11.9	67	6.0	18	34	247	0.00	1003.051	96	0.000	0
20071207 11:40	11.9	11.9	11.9	67	6.0	14	32	247	0.00	1003.017	96	0.000	0
20071207 11:45	11.9	11.9	11.9	67	6.0	14	35	270	0.00	1002.814	98	0.000	1
20071207 11:50	11.9	11.9	11.9	66	5.8	14	29	247	0.00	1002.645	105	0.000	1
20071207 11:55	11.9	11.9	11.9	67	6.0	13	24	225	0.00	1002.509	103	0.000	1
20071207 12:00	12.0	12.0	12.0	67	6.1	13	27	247	0.00	1002.543	103	0.080	1
20071207 12:05	12.0	12.0	12.0	66	5.8	14	37	247	0.00	1002.272	101	0.000	1
20071207 12:10	12.2	12.2	12.2	65	5.8	18	32	247	0.00	1002.238	173	0.000	1
20071207 12:15	12.4	12.4	12.4	65	6.0	14	34	247	0.00	1002.171	239	0.000	1
20071207 12:20	12.4	12.4	12.4	65	6.0	16	34	247	0.00	1001.967	152	0.000	1
20071207 12:25	12.4	12.4	12.4	64	5.8	13	29	247	0.00	1001.832	145	0.000	1
20071207 12:30	12.6	12.6	12.6	64	5.9	16	39	247	0.00	1001.697	163	0.000	1
20071207 12:35	12.7	12.7	12.7	64	6.0	19	39	247	0.00	1001.697	198	0.000	1
20071207 12:40	12.8	12.8	12.8	64	6.2	14	35	247	0.00	1001.595	336	0.000	1
20071207 12:45	12.9	12.9	12.9	63	6.0	14	26	247	0.00	1001.358	208	0.000	1
20071207 12:50	12.9	12.9	12.9	63	6.1	18	32	247	0.00	1001.290	165	0.000	1
20071207 12:55	13.2	13.2	13.2	62	6.0	18	40	247	0.00	1001.121	326	0.000	1
20071207 13:00	13.3	13.3	13.3	63	6.4	21	43	247	0.00	1001.155	370	0.140	1
20071207 13:05	13.6	13.6	13.6	62	6.4	23	35	247	0.00	1000.918	414	0.000	1
20071207 13:10	13.6	13.6	13.6	60	6.0	19	32	247	0.00	1000.884	283	0.000	1
20071207 13:15	13.4	13.4	13.4	61	6.1	19	39	247	0.00	1001.155	139	0.000	0
20071207 13:20	13.3	13.3	13.3	62	6.2	21	40	270	0.00	1000.884	144	0.000	0
20071207 13:25	13.2	13.2	13.2	63	6.3	16	32	247	0.00	1000.748	133	0.000	1
20071207 13:30	13.1	13.1	13.1	63	6.2	19	45	270	0.00	1000.613	151	0.000	1
20071207 13:35	13.2	13.2	13.2	62	6.0	19	45	247	0.00	1000.647	170	0.000	0
20071207 13:40	13.3	13.3	13.3	63	6.4	18	40	247	0.00	1000.511	196	0.000	0
20071207 13:45	13.4	13.4	13.4	61	6.0	21	40	247	0.00	1000.477	240	0.000	0
20071207 13:50	13.4	13.4	13.4	61	6.1	23	47	270	0.00	1000.308	331	0.000	1
20071207 13:55	13.5	13.5	13.5	62	6.4	16	40	247	0.00	1000.376	185	0.000	0
20071207 14:00	13.3	13.3	13.3	63	6.4	18	34	270	0.00	1000.240	96	0.140	0
20071207 14:05	13.2	13.2	13.2	62	6.0	18	40	247	0.00	1000.173	100	0.000	0
20071207 14:10	13.1	13.1	13.1	62	6.0	23	42	247	0.00	1000.071	86	0.000	0
20071207 14:15	13.1	13.1	13.1	64	6.4	14	40	247	0.00	1000.240	99	0.000	0
20071207 14:20	13.0	13.0	13.0	62	5.9	16	39	247	0.00	1000.376	56	0.000	0
20071207 14:25	13.0	13.0	13.0	63	6.1	16	35	247	0.00	1000.240	62	0.000	0
20071207 14:30	12.9	12.9	12.9	63	6.1	16	29	247	0.00	1000.308	45	0.000	0
20071207 14:35	12.9	12.9	12.9	62	5.8	19	47	247	0.00	1000.105	26	0.000	0
20071207 14:40	12.8	12.8	12.8	63	6.0	18	32	247	0.00	1000.240	37	0.000	0
20071207 14:45	12.8	12.8	12.8	62	5.7	21	35	247	0.00	1000.342	35	0.000	0
20071207 14:50	12.8	12.8	12.8	64	6.2	19	37	270	0.00	1000.410	44	0.000	0
20071207 14:55	12.8	12.8	12.8	63	5.9	19	34	247	0.00	1000.342	29	0.000	0
20071207 15:00	12.8	12.8	12.8	64	6.1	21	45	247	0.00	1000.274	32	0.080	0
20071207 15:05	12.8	12.8	12.8	64	6.1	23	40	247	0.00	1000.410	39	0.000	0
20071207 15:10	12.7	12.7	12.7	64	6.1	21	35	247	0.00	1000.342	22	0.000	0
20071207 15:15	12.7	12.7	12.7	64	6.0	19	47	247	0.00	1000.477	10	0.000	0
20071207 15:20	12.6	12.6	12.6	65	6.2	19	34	247	0.00	1000.647	8	0.000	0
20071207 15:25	12.6	12.6	12.6	64	5.9	21	40	247	0.00	1000.545	16	0.000	0
20071207 15:30	12.6	12.6	12.6	64	6.0	26	43	270	0.00	1000.681	23	0.000	0
20071207 15:35	12.5	12.5	12.5	65	6.1	27	58	247	0.00	1000.545	20	0.000	0
20071207 15:40	12.3	12.3	12.3	66	6.1	21	37	247	0.00	1000.952	15	0.000	0
20071207 15:45	12.3	12.3	12.3	66	6.2	19	35	270	0.00	1000.884	11	0.000	0
20071207 15:50	12.3	12.3	12.3	66	6.2	18	34	270	0.00	1000.782	12	0.000	0
20071207 15:55	12.3	12.3	12.3	67	6.3	19	32	247	0.00	1000.816	10	0.000	0
20071207 16:00	12.2	12.2	12.2	67	6.2	24	50	247	0.00	1001.121	11	0.080	0
20071207 16:05	11.9	11.9	11.9	69	6.4	19	34	247	0.00	1001.121	8	0.000	0
20071207 16:10	11.8	11.8	11.8	69	6.3	19	40	247	0.00	1001.019	2	0.000	0
20071207 16:15	11.4	11.4	11.4	72	6.5	26	50	270	0.20	1002.171	0	0.000	0
20071207 16:20	9.4	5.9	9.4	77	5.6	29	50	270	0.40	1002.679	0	0.000	0
20071207 16:25	8.6	5.2	8.6	81	5.5	24	42	270	0.00	1002.780	0	0.000	0
20071207 16:30	8.3	4.5	8.3	79	4.9	27	47	270	0.20	1002.950	0	0.000	0
20071207 16:35	8.1	5.1	8.1	80	4.9	19	32	270	0.00	1003.153	0	0.000	0
20071207 16:40	8.1	4.5	8.1	77	4.3	24	37	270	0.20	1003.187	0	0.000	0
20071207 16:45	7.9	5.3	7.9	77	4.2	16	31	247	0.00	1003.390	0	0.000	0
20071207 16:50	7.9	5.7	7.9	76	4.0	13	24	270	0.00	1003.390	0	0.000	0
20071207 16:55	7.9	5.9	7.9	76	3.9	11	27	247	0.00	1003.525	0	0.000	0
20071207 17:00	7.8	5.6	7.8	75	3.7	13	29	247	0.00	1003.559	0	0.040	0
20071207 17:05	7.8	5.8	7.8	76	3.9	11	24	247	0.00	1003.559	0	0.000	0
20071207 17:10	7.8	6.1	7.8	75	3.6	10	19	270	0.00	1003.627	0	0.000	0
20071207 17:15	7.7	5.7	7.7	75	3.6	11	29	247	0.00	1003.728	0	0.000	0
20071207 17:20	7.7	6.3	7.7	76	3.7	8	18	247	0.00	1003.424	0	0.000	0
20071207 17:25	7.7	6.3	7.7	75	3.5	8	21	270	0.00	1003.424	0	0.000	0
20071207 17:30	7.7	5.9	7.7	75	3.5	10	18	270	0.00	1003.424	0	0.000	0
20071207 17:35	7.7	5.7	7.7	75	3.6	11	21	247	0.00	1003.627	0	0.000	0
20071207 17:40	7.8	5.8	7.8	74	3.4	11	24	247	0.00	1003.830	0	0.000	0
20071207 17:45	7.8	5.8	7.8	72	3.1	11	24	247	0.00	1003.762	0	0.000	0
20071207 17:50	7.9	5.9	7.9	72	3.2	11	26	247	0.00	1003.762	0	0.000	0
20071207 17:55	7.9	5.6	7.9	72	3.2	13	26	247	0.00	1003.762	0	0.000	0
20071207 18:00	7.9	5.5	7.9	71	3.0	14	26	247	0.00	1003.796	0	0.020	0
20071207 18:05	7.9	5.3	7.9	71	3.0	16	24	247	0.00	1003.932	0	0.000	0
20071207 18:10	7.9	5.7	7.9	71	3.0	13	26	247	0.00	1004.067	0	0.000	0
20071207 18:15	7.8	5.6	7.8	71	2.9	13	29	247	0.00	1004.135	0	0.000	0
20071207 18:20	7.8	5.6	7.8	71	2.9	13	29	247	0.00	1004.203	0	0.000	0
20071207 18:25	7.9	5.3	7.9	70	2.8	16	37	247	0.00	1004.169	0	0.000	0
20071207 18:30	7.9	5.3	7.9	70	2.8	16	32	270	0.00	1004.033	0	0.000	0
20071207 18:35	8.0	5.1	8.0	69	2.7	18	32	247	0.00	1004.033	0	0.000	0
20071207 18:40	8.1	5.5	8.1	70	3.0	16	29	270	0.00	1003.932	0	0.000	0
20071207 18:45	8.0	5.5	8.0	71	3.1	14	26	270	0.00	1003.830	0	0.000	0
20071207 18:50	7.9	5.5	7.9	72	3.2	14	24	270	0.00	1004.033	0	0.000	0
20071207 18:55	8.0	5.5	8.0	71	3.1	14	26	247	0.00	1004.067	0	0.000	0
20071207 19:00	8.1	6.1	8.1	72	3.3	11	21	247	0.00	1004.033	0	0.040	0
20071207 19:05	8.1	5.8	8.1	73	3.5	13	26	247	0.00	1004.033	0	0.000	0
20071207 19:10	7.9	6.3	7.9	74	3.6	10	21	247	0.00	1004.236	0	0.000	0
20071207 19:15	7.9	5.7	7.9	73	3.4	13	26	247	0.00	1004.270	0	0.000	0
20071207 19:20	7.9	6.3	7.9	73	3.4	10	19	247	0.00	1004.236	0	0.000	0
20071207 19:25	7.9	6.2	7.9	73	3.4	10	23	247	0.00	1004.270	0	0.000	0
20071207 19:30	7.9	6.3	7.9	73	3.4	10	21	247	0.00	1004.169	0	0.000	0
20071207 19:35	8.1	6.1	8.1	72	3.3	11	19	247	0.00	1004.033	0	0.000	0
20071207 19:40	8.0	6.7	8.0	73	3.5	8	16	247	0.00	1004.033	0	0.000	0
20071207 19:45	8.1	6.1	8.1	72	3.3	11	27	247	0.00	1004.203	0	0.000	0
20071207 19:50	8.1	6.5	8.1	74	3.8	10	19	247	0.00	1004.203	0	0.000	0
20071207 19:55	8.1	7.1	8.1	75	3.9	6	11	247	0.00	1004.236	0	0.000	0
20071207 20:00	7.9	7.9	7.9	76	4.0	5	10	247	0.00	1004.236	0	0.020	0
20071207 20:05	7.9	6.9	7.9	77	4.1	6	18	247	0.00	1004.033	0	0.000	0
20071207 20:10	7.8	6.5	7.8	77	4.1	8	16	247	0.00	1004.203	0	0.000	0
20071207 20:15	7.7	5.1	7.7	76	3.7	14	27	292	0.00	1004.507	0	0.000	0
20071207 20:20	7.2	4.4	7.2	80	4.0	16	31	292	0.20	1004.677	0	0.000	0
20071207 20:25	6.6	4.4	6.6	83	3.9	11	23	292	0.40	1004.609	0	0.000	0
20071207 20:30	6.3	4.3	6.3	85	3.9	10	23	270	0.00	1004.744	0	0.000	0
20071207 20:35	6.0	3.3	6.0	86	3.8	13	19	270	0.00	1004.812	0	0.000	0
20071207 20:40	5.8	3.1	5.8	87	3.8	13	29	292	0.00	1004.609	0	0.000	0
20071207 20:45	5.7	3.3	5.7	87	3.7	11	18	292	0.00	1004.541	0	0.000	0
20071207 20:50	5.6	3.5	5.6	88	3.8	10	21	292	0.00	1004.541	0	0.000	0
20071207 20:55	5.6	3.4	5.6	88	3.7	10	18	292	0.00	1004.609	0	0.000	0
20071207 21:00	5.6	3.4	5.6	88	3.7	10	19	270	0.00	1004.643	0	0.020	0
20071207 21:05	5.6	3.5	5.6	88	3.8	10	19	270	0.00	1004.711	0	0.000	0
20071207 21:10	5.6	3.5	5.6	87	3.6	10	18	270	0.20	1004.677	0	0.000	0
20071207 21:15	5.7	3.5	5.7	87	3.7	10	23	270	0.00	1004.677	0	0.000	0
20071207 21:20	5.7	3.5	5.7	86	3.5	10	21	247	0.00	1004.609	0	0.000	0
20071207 21:25	5.7	3.6	5.7	86	3.6	10	16	247	0.00	1004.711	0	0.000	0
20071207 21:30	5.7	4.4	5.7	86	3.6	6	19	247	0.00	1004.677	0	0.000	0
20071207 21:35	5.7	4.4	5.7	86	3.6	6	16	247	0.00	1004.846	0	0.000	0
20071207 21:40	5.7	4.0	5.7	86	3.6	8	16	247	0.00	1004.880	0	0.000	0
20071207 21:45	5.8	4.1	5.8	85	3.5	8	16	247	0.00	1004.778	0	0.000	0
20071207 21:50	5.8	5.8	5.8	86	3.6	5	10	247	0.00	1004.677	0	0.000	0
20071207 21:55	5.7	5.7	5.7	86	3.6	5	8	247	0.00	1004.711	0	0.000	0
20071207 22:00	5.7	5.7	5.7	86	3.6	3	8	270	0.00	1004.812	0	0.020	0
20071207 22:05	5.6	5.6	5.6	87	3.6	3	8	247	0.00	1004.812	0	0.000	0
20071207 22:10	5.6	5.6	5.6	87	3.6	3	6	247	0.00	1004.711	0	0.000	0
20071207 22:15	5.6	5.6	5.6	87	3.6	3	6	247	0.00	1004.677	0	0.000	0
20071207 22:20	5.6	5.6	5.6	87	3.6	3	6	247	0.00	1004.812	0	0.000	0
20071207 22:25	5.6	5.6	5.6	87	3.6	3	6	247	0.00	1004.846	0	0.000	0
20071207 22:30	5.6	5.6	5.6	87	3.6	2	5	247	0.00	1004.914	0	0.000	0
20071207 22:35	5.6	5.6	5.6	87	3.6	3	6	247	0.00	1004.948	0	0.000	0
20071207 22:40	5.6	5.6	5.6	88	3.7	2	3	247	0.00	1004.948	0	0.000	0
20071207 22:45	5.5	5.5	5.5	88	3.7	2	3	247	0.00	1004.914	0	0.000	0
20071207 22:50	5.5	5.5	5.5	88	3.7	0	2	247	0.00	1004.948	0	0.000	0
20071207 22:55	5.5	5.5	5.5	88	3.7	0	2	247	0.00	1005.049	0	0.000	0
20071207 23:00	5.5	5.5	5.5	88	3.7	0	2	247	0.00	1005.049	0	0.000	0
20071207 23:05	5.5	5.5	5.5	88	3.7	0	2	247	0.00	1005.015	0	0.000	0
20071207 23:10	5.5	5.5	5.5	88	3.7	0	2	247	0.00	1005.083	0	0.000	0
20071207 23:15	5.5	5.5	5.5	88	3.7	0	3	247	0.00	1005.117	0	0.000	0
20071207 23:20	5.6	5.6	5.6	88	3.7	0	3	247	0.00	1005.218	0	0.000	0
20071207 23:25	5.6	5.6	5.6	88	3.7	0	3	247	0.00	1005.252	0	0.000	0
20071207 23:30	5.6	5.6	5.6	88	3.7	2	5	247	0.00	1005.286	0	0.000	0
20071207 23:35	5.6	5.6	5.6	88	3.7	2	8	247	0.00	1005.252	0	0.000	0
20071207 23:40	5.6	5.6	5.6	88	3.7	2	6	225	0.00	1005.286	0	0.000	0
20071207 23:45	5.7	5.7	5.7	87	3.7	5	16	225	0.00	1005.252	0	0.000	0
20071207 23:50	5.7	5.7	5.7	87	3.7	3	10	247	0.00	1005.286	0	0.000	0
20071207 23:55	5.7	5.7	5.7	87	3.7	3	6	225	0.00	1005.354	0	0.000	0
20071207 24:00	5.6	5.6	5.6	87	3.6	3	11	247	0.00	1005.456	0	0.000	0



Please note the license to use and transfer of this data:
http://creativecommons.org/licenses/by-nc-sa/3.0/deed.en

Bitte beachten sie die Lizenz zur Verwertung und Weitergabe der Daten:
http://creativecommons.org/licenses/by-nc-sa/3.0/deed.de

zurück zur Übersicht der Archivdaten (Monats und Tagesdaten)

Cookies helfen bei der Bereitstellung von Inhalten. Durch die Nutzung dieser Seiten erklärst du dich damit einverstanden, dass Cookies auf deinem Rechner gespeichert werden. Weitere Information